createdAt,value
2018-07-22T00:05:59.223Z,3.39
2018-07-22T00:15:57.531Z,3.39
2018-07-22T00:25:53.543Z,3.39
2018-07-22T00:35:50.641Z,3.38
2018-07-22T00:45:49.424Z,3.38
2018-07-22T00:55:47.825Z,3.38
2018-07-22T01:05:44.481Z,3.38
2018-07-22T01:15:40.668Z,3.38
2018-07-22T01:25:39.778Z,3.38
2018-07-22T01:35:34.085Z,3.37
2018-07-22T01:45:29.885Z,3.37
2018-07-22T01:55:27.702Z,3.37
2018-07-22T02:05:26.266Z,3.37
2018-07-22T02:15:24.127Z,3.37
2018-07-22T02:25:20.778Z,3.37
2018-07-22T02:35:18.223Z,3.37
2018-07-22T02:45:12.453Z,3.37
2018-07-22T02:55:11.308Z,3.37
2018-07-22T03:05:09.141Z,3.37
2018-07-22T03:15:05.603Z,3.37
2018-07-22T03:25:04.979Z,3.37
2018-07-22T03:35:00.659Z,3.37
2018-07-22T03:44:58.416Z,3.37
2018-07-22T03:54:56.508Z,3.37
2018-07-22T04:04:51.329Z,3.37
2018-07-22T04:14:48.178Z,3.37
2018-07-22T04:24:47.469Z,3.37
2018-07-22T04:34:46.153Z,3.38
2018-07-22T04:44:40.948Z,3.38
2018-07-22T04:54:39.459Z,3.38
2018-07-22T05:04:35.326Z,3.39
2018-07-22T05:14:32.797Z,3.39
2018-07-22T05:24:28.717Z,3.40
2018-07-22T05:34:26.695Z,3.41
2018-07-22T05:44:25.311Z,3.42
2018-07-22T05:54:22.782Z,3.43
2018-07-22T06:04:20.377Z,3.43
2018-07-22T06:14:19.267Z,3.45
2018-07-22T06:24:15.829Z,3.42
2018-07-22T06:34:09.062Z,3.42
2018-07-22T06:44:05.565Z,3.42
2018-07-22T06:54:02.801Z,3.42
2018-07-22T07:04:00.974Z,3.42
2018-07-22T07:13:59.156Z,3.42
2018-07-22T07:23:53.571Z,3.42
2018-07-22T07:33:49.130Z,3.41
2018-07-22T07:43:43.267Z,3.41
2018-07-22T07:53:36.191Z,3.42
2018-07-22T08:03:34.551Z,3.41
2018-07-22T08:13:32.588Z,3.41
2018-07-22T08:23:29.429Z,3.41
2018-07-22T08:33:27.607Z,3.41
2018-07-22T08:43:22.388Z,3.41
2018-07-22T08:53:20.277Z,3.41
2018-07-22T09:03:14.300Z,3.41
2018-07-22T09:13:07.624Z,3.41
2018-07-22T09:23:06.112Z,3.42
2018-07-22T09:32:58.822Z,3.41
2018-07-22T09:42:58.239Z,3.41
2018-07-22T09:52:56.728Z,3.41
2018-07-22T10:02:52.030Z,3.41
2018-07-22T10:12:47.053Z,3.42
2018-07-22T10:22:46.548Z,3.42
2018-07-22T10:32:46.274Z,3.42
2018-07-22T10:42:43.031Z,3.42
2018-07-22T10:52:38.724Z,3.41
2018-07-22T11:02:38.049Z,3.41
2018-07-22T11:12:35.763Z,3.41
2018-07-22T11:22:33.639Z,3.42
2018-07-22T11:32:29.387Z,3.42
2018-07-22T11:42:24.818Z,3.41
2018-07-22T11:52:20.485Z,3.41
2018-07-22T12:02:13.266Z,3.41
2018-07-22T12:12:11.640Z,3.41
2018-07-22T12:22:11.465Z,3.41
2018-07-22T12:32:10.709Z,3.41
2018-07-22T12:42:05.991Z,3.41
2018-07-22T12:52:01.123Z,3.40
2018-07-22T13:01:57.631Z,3.40
2018-07-22T13:11:48.985Z,3.43
2018-07-22T13:21:45.038Z,3.43
2018-07-22T13:31:39.499Z,3.45
2018-07-22T13:41:39.273Z,3.43
2018-07-22T13:51:36.167Z,3.42
2018-07-22T14:01:30.453Z,3.42
2018-07-22T14:11:28.811Z,3.42
2018-07-22T14:21:25.072Z,3.42
2018-07-22T14:31:22.849Z,3.42
2018-07-22T14:41:20.562Z,3.41
2018-07-22T14:51:18.430Z,3.41
2018-07-22T15:01:16.188Z,3.41
2018-07-22T15:11:11.779Z,3.41
2018-07-22T15:21:07.197Z,3.45
2018-07-22T15:31:03.796Z,3.44
2018-07-22T15:41:00.849Z,3.43
2018-07-22T15:50:57.198Z,3.43
2018-07-22T16:00:52.736Z,3.42
2018-07-22T16:10:51.734Z,3.42
2018-07-22T16:20:50.148Z,3.42
2018-07-22T16:30:46.806Z,3.42
2018-07-22T16:40:41.173Z,3.43
2018-07-22T16:50:35.430Z,3.45
2018-07-22T17:00:32.319Z,3.45
2018-07-22T17:10:29.008Z,3.45
2018-07-22T17:20:23.543Z,3.45
2018-07-22T17:30:19.055Z,3.45
2018-07-22T17:40:15.444Z,3.45
2018-07-22T17:50:11.140Z,3.45
2018-07-22T18:00:08.507Z,3.44
2018-07-22T18:10:05.757Z,3.44
2018-07-22T18:20:02.161Z,3.44
2018-07-22T18:29:56.764Z,3.43
2018-07-22T18:39:53.610Z,3.43
2018-07-22T18:49:52.577Z,3.43
2018-07-22T18:59:50.214Z,3.43
2018-07-22T19:09:43.851Z,3.43
2018-07-22T19:19:40.928Z,3.43
2018-07-22T19:29:25.374Z,3.42
2018-07-22T19:39:19.600Z,3.42
2018-07-22T19:49:14.275Z,3.42
2018-07-22T19:59:08.678Z,3.42
2018-07-22T20:09:06.935Z,3.42
2018-07-22T20:19:04.035Z,3.42
2018-07-22T20:29:02.922Z,3.42
2018-07-22T20:38:55.818Z,3.41
2018-07-22T20:48:47.272Z,3.41
2018-07-22T20:58:45.753Z,3.41
2018-07-22T21:08:44.011Z,3.41
2018-07-22T21:18:42.037Z,3.41
2018-07-22T21:28:36.992Z,3.41
2018-07-22T21:38:34.942Z,3.41
2018-07-22T21:48:33.354Z,3.40
2018-07-22T21:58:29.250Z,3.40
2018-07-22T22:08:24.463Z,3.40
2018-07-22T22:18:23.291Z,3.40
2018-07-22T22:28:19.842Z,3.40
2018-07-22T22:38:17.504Z,3.40
2018-07-22T22:48:15.434Z,3.40
2018-07-22T22:58:11.123Z,3.40
2018-07-22T23:08:09.634Z,3.40
2018-07-22T23:18:06.314Z,3.39
2018-07-22T23:28:03.328Z,3.39
2018-07-22T23:38:02.288Z,3.39
2018-07-22T23:47:59.108Z,3.39
2018-07-22T23:57:55.591Z,3.39
